createdAt,value
2018-10-17T00:00:47.765Z,101201.34
2018-10-17T00:03:16.213Z,101189.75
2018-10-17T00:05:44.633Z,101193.13
2018-10-17T00:08:13.053Z,101188.41
2018-10-17T00:10:41.504Z,101190.11
2018-10-17T00:13:10.039Z,101187.52
2018-10-17T00:15:38.392Z,101187.96
2018-10-17T00:18:06.854Z,101187.91
2018-10-17T00:20:35.290Z,101194.78
2018-10-17T00:23:03.711Z,101196.07
2018-10-17T00:25:32.094Z,101192.14
2018-10-17T00:28:00.515Z,101190.91
2018-10-17T00:30:28.948Z,101194.34
2018-10-17T00:32:57.435Z,101187.08
2018-10-17T00:35:25.862Z,101188.81
2018-10-17T00:37:54.258Z,101184.55
2018-10-17T00:40:24.693Z,101182.89
2018-10-17T00:42:54.028Z,101179.85
2018-10-17T00:45:22.418Z,101181.55
2018-10-17T00:47:50.845Z,101174.27
2018-10-17T00:50:19.253Z,101175.13
2018-10-17T00:52:47.686Z,101163.98
2018-10-17T00:55:16.200Z,101160.13
2018-10-17T00:57:44.556Z,101162.25
2018-10-17T01:00:12.999Z,101161.30
2018-10-17T01:02:41.396Z,101167.72
2018-10-17T01:05:09.930Z,101165.22
2018-10-17T01:07:38.281Z,101164.41
2018-10-17T01:10:06.716Z,101166.98
2018-10-17T01:12:35.093Z,101163.08
2018-10-17T01:15:03.646Z,101166.92
2018-10-17T01:17:32.066Z,101172.08
2018-10-17T01:20:00.559Z,101169.51
2018-10-17T01:22:28.979Z,101164.36
2018-10-17T01:24:57.458Z,101163.07
2018-10-17T01:27:25.904Z,101159.22
2018-10-17T01:29:54.288Z,101156.67
2018-10-17T01:32:22.680Z,101158.84
2018-10-17T01:34:51.096Z,101155.40
2018-10-17T01:37:19.492Z,101153.22
2018-10-17T01:39:47.895Z,101149.78
2018-10-17T01:42:16.338Z,101151.42
2018-10-17T01:44:44.748Z,101151.42
2018-10-17T01:47:13.245Z,101146.28
2018-10-17T01:49:41.577Z,101149.27
2018-10-17T01:52:10.024Z,101144.12
2018-10-17T01:54:38.487Z,101142.39
2018-10-17T01:57:07.165Z,101148.41
2018-10-17T01:59:35.605Z,101153.09
2018-10-17T02:02:04.172Z,101153.08
2018-10-17T02:04:32.600Z,101146.64
2018-10-17T02:07:01.076Z,101143.58
2018-10-17T02:09:29.472Z,101145.30
2018-10-17T02:11:57.861Z,101147.01
2018-10-17T02:14:26.416Z,101148.71
2018-10-17T02:16:54.868Z,101144.86
2018-10-17T02:19:23.219Z,101146.12
2018-10-17T02:21:51.575Z,101148.23
2018-10-17T02:24:19.973Z,101145.23
2018-10-17T02:26:48.364Z,101144.36
2018-10-17T02:29:16.882Z,101147.78
2018-10-17T02:31:45.191Z,101149.51
2018-10-17T02:34:13.622Z,101151.23
2018-10-17T02:36:42.010Z,101152.95
2018-10-17T02:39:11.260Z,101155.48
2018-10-17T02:41:39.764Z,101153.28
2018-10-17T02:44:08.535Z,101150.30
2018-10-17T02:46:37.028Z,101147.73
2018-10-17T02:49:05.707Z,101151.16
2018-10-17T02:51:34.083Z,101151.98
2018-10-17T02:54:02.529Z,101147.28
2018-10-17T02:56:30.987Z,101149.82
2018-10-17T02:58:59.481Z,101146.83
2018-10-17T03:01:28.128Z,101153.27
2018-10-17T03:03:56.571Z,101153.70
2018-10-17T03:06:24.957Z,101152.80
2018-10-17T03:08:53.320Z,101158.36
2018-10-17T03:11:21.719Z,101161.70
2018-10-17T03:13:50.238Z,101162.12
2018-10-17T03:16:18.649Z,101163.81
2018-10-17T03:18:47.036Z,101164.67
2018-10-17T03:21:15.458Z,101162.94
2018-10-17T03:23:43.841Z,101166.38
2018-10-17T03:26:12.293Z,101166.38
2018-10-17T03:28:40.718Z,101161.69
2018-10-17T03:31:09.271Z,101166.38
2018-10-17T03:33:37.533Z,101167.23
2018-10-17T03:36:05.912Z,101168.09
2018-10-17T03:38:34.342Z,101168.52
2018-10-17T03:41:02.795Z,101170.65
2018-10-17T03:43:31.184Z,101172.33
2018-10-17T03:45:59.588Z,101175.30
2018-10-17T03:48:28.013Z,101177.43
2018-10-17T03:50:56.449Z,101175.31
2018-10-17T03:53:24.836Z,101176.56
2018-10-17T03:55:53.293Z,101178.66
2018-10-17T03:58:21.669Z,101176.49
2018-10-17T04:00:50.224Z,101181.20
2018-10-17T04:03:18.701Z,101185.05
2018-10-17T04:05:47.131Z,101184.61
2018-10-17T04:08:15.590Z,101182.89
2018-10-17T04:10:44.045Z,101181.59
2018-10-17T04:13:12.554Z,101181.15
2018-10-17T04:15:40.892Z,101180.30
2018-10-17T04:18:09.379Z,101181.58
2018-10-17T04:20:37.842Z,101179.45
2018-10-17T04:23:06.305Z,101179.50
2018-10-17T04:25:34.706Z,101182.93
2018-10-17T04:28:03.141Z,101176.08
2018-10-17T04:30:31.584Z,101178.28
2018-10-17T04:32:59.981Z,101180.75
2018-10-17T04:35:28.385Z,101176.75
2018-10-17T04:37:56.957Z,101181.88
2018-10-17T04:40:25.376Z,101188.72
2018-10-17T04:42:53.842Z,101183.96
2018-10-17T04:45:22.199Z,101177.53
2018-10-17T04:47:50.638Z,101177.97
2018-10-17T04:50:19.057Z,101177.98
2018-10-17T04:52:47.445Z,101172.00
2018-10-17T04:55:15.920Z,101168.19
2018-10-17T04:57:44.307Z,101170.41
2018-10-17T05:00:13.407Z,101170.02
2018-10-17T05:02:43.170Z,101167.47
2018-10-17T05:05:12.242Z,101166.63
2018-10-17T05:07:40.633Z,101160.62
2018-10-17T05:10:09.081Z,101164.84
2018-10-17T05:12:37.485Z,101167.69
2018-10-17T05:15:06.333Z,101170.22
2018-10-17T05:17:34.653Z,101174.11
2018-10-17T05:20:03.116Z,101170.30
2018-10-17T05:22:31.504Z,101175.41
2018-10-17T05:24:59.962Z,101175.39
2018-10-17T05:27:28.396Z,101186.86
2018-10-17T05:29:56.903Z,101186.37
2018-10-17T05:32:25.369Z,101199.58
2018-10-17T05:34:53.768Z,101201.27
2018-10-17T05:37:22.239Z,101202.16
2018-10-17T05:39:50.651Z,101204.25
2018-10-17T05:42:19.109Z,101198.67
2018-10-17T05:44:47.528Z,101199.52
2018-10-17T05:47:16.009Z,101208.09
2018-10-17T05:49:44.342Z,101213.70
2018-10-17T05:52:12.782Z,101209.03
2018-10-17T05:54:41.225Z,101216.73
2018-10-17T05:57:09.622Z,101217.58
2018-10-17T05:59:38.060Z,101213.29
2018-10-17T06:02:12.631Z,101217.16
2018-10-17T06:04:40.956Z,101219.78
2018-10-17T06:07:09.416Z,101216.80
2018-10-17T06:09:37.764Z,101225.84
2018-10-17T06:12:06.193Z,101228.72
2018-10-17T06:14:34.625Z,101221.84
2018-10-17T06:17:03.120Z,101219.30
2018-10-17T06:19:31.498Z,101222.36
2018-10-17T06:21:59.987Z,101222.41
2018-10-17T06:24:28.396Z,101232.63
2018-10-17T06:26:56.848Z,101230.84
2018-10-17T06:29:25.257Z,101227.86
2018-10-17T06:31:53.724Z,101231.71
2018-10-17T06:34:22.305Z,101228.23
2018-10-17T06:36:50.649Z,101224.40
2018-10-17T06:39:19.072Z,101232.14
2018-10-17T06:41:47.511Z,101229.20
2018-10-17T06:44:15.913Z,101232.20
2018-10-17T06:46:44.322Z,101229.13
2018-10-17T06:49:12.854Z,101227.38
2018-10-17T06:51:41.249Z,101233.77
2018-10-17T06:54:09.678Z,101231.20
2018-10-17T06:56:38.110Z,101227.38
2018-10-17T06:59:06.763Z,101225.28
2018-10-17T07:01:35.257Z,101229.97
2018-10-17T07:04:03.696Z,101231.26
2018-10-17T07:06:32.184Z,101242.89
2018-10-17T07:09:00.641Z,101242.98
2018-10-17T07:11:29.124Z,101243.37
2018-10-17T07:13:57.610Z,101243.81
2018-10-17T07:16:26.267Z,101246.42
2018-10-17T07:18:54.718Z,101246.45
2018-10-17T07:21:23.207Z,101240.95
2018-10-17T07:23:51.625Z,101244.02
2018-10-17T07:26:20.082Z,101234.63
2018-10-17T07:28:48.608Z,101238.91
2018-10-17T07:31:17.097Z,101238.97
2018-10-17T07:33:45.469Z,101236.44
2018-10-17T07:36:13.987Z,101242.08
2018-10-17T07:38:42.333Z,101237.84
2018-10-17T07:41:10.833Z,101241.31
2018-10-17T07:43:39.282Z,101240.53
2018-10-17T07:46:07.735Z,101244.84
2018-10-17T07:48:36.190Z,101244.02
2018-10-17T07:51:04.993Z,101240.61
2018-10-17T07:53:33.619Z,101246.21
2018-10-17T07:56:02.085Z,101234.23
2018-10-17T07:58:30.497Z,101239.44
2018-10-17T08:00:58.942Z,101240.33
2018-10-17T08:03:27.437Z,101239.48
2018-10-17T08:05:55.931Z,101239.52
2018-10-17T08:08:24.655Z,101235.24
2018-10-17T08:10:53.092Z,101240.41
2018-10-17T08:13:21.510Z,101237.89
2018-10-17T08:15:50.005Z,101243.06
2018-10-17T08:18:18.536Z,101245.64
2018-10-17T08:20:46.931Z,101237.95
2018-10-17T08:23:15.333Z,101242.27
2018-10-17T08:25:43.793Z,101240.14
2018-10-17T08:28:12.197Z,101243.19
2018-10-17T08:30:40.639Z,101244.08
2018-10-17T08:33:09.085Z,101241.09
2018-10-17T08:35:37.631Z,101242.39
2018-10-17T08:38:06.163Z,101234.70
2018-10-17T08:40:34.549Z,101237.70
2018-10-17T08:43:02.936Z,101239.48
2018-10-17T08:45:31.344Z,101237.78
2018-10-17T08:47:59.746Z,101236.51
2018-10-17T08:50:28.311Z,101236.09
2018-10-17T08:52:56.767Z,101239.12
2018-10-17T08:55:25.206Z,101237.45
2018-10-17T08:57:53.745Z,101243.07
2018-10-17T09:00:22.143Z,101248.30
2018-10-17T09:02:50.577Z,101246.20
2018-10-17T09:05:19.004Z,101249.66
2018-10-17T09:07:47.553Z,101255.69
2018-10-17T09:10:15.948Z,101260.08
2018-10-17T09:12:44.385Z,101257.98
2018-10-17T09:15:12.816Z,101255.94
2018-10-17T09:17:41.297Z,101257.31
2018-10-17T09:20:10.373Z,101263.31
2018-10-17T09:22:38.693Z,101261.17
2018-10-17T09:25:07.400Z,101260.70
2018-10-17T09:27:36.009Z,101262.89
2018-10-17T09:30:04.953Z,101256.97
2018-10-17T09:32:33.976Z,101267.31
2018-10-17T09:35:02.444Z,101261.30
2018-10-17T09:37:30.872Z,101261.38
2018-10-17T09:39:59.306Z,101259.66
2018-10-17T09:42:27.736Z,101262.23
2018-10-17T09:44:56.165Z,101261.38
2018-10-17T09:47:24.628Z,101260.09
2018-10-17T09:49:53.121Z,101251.92
2018-10-17T09:52:21.642Z,101264.81
2018-10-17T09:54:50.052Z,101261.81
2018-10-17T09:57:18.534Z,101260.95
2018-10-17T09:59:47.029Z,101258.80
2018-10-17T10:02:15.451Z,101260.98
2018-10-17T10:04:43.905Z,101258.39
2018-10-17T10:07:12.344Z,101263.13
2018-10-17T10:09:40.728Z,101258.83
2018-10-17T10:12:09.232Z,101252.38
2018-10-17T10:14:37.567Z,101254.98
2018-10-17T10:17:06.188Z,101254.12
2018-10-17T10:19:34.521Z,101257.98
2018-10-17T10:22:03.020Z,101254.13
2018-10-17T10:24:31.453Z,101250.69
2018-10-17T10:27:00.929Z,101253.26
2018-10-17T10:29:29.387Z,101242.52
2018-10-17T10:31:57.837Z,101245.53
2018-10-17T10:34:26.274Z,101246.80
2018-10-17T10:36:54.745Z,101245.88
2018-10-17T10:39:23.191Z,101238.14
2018-10-17T10:41:51.723Z,101235.56
2018-10-17T10:44:20.167Z,101242.41
2018-10-17T10:46:48.560Z,101236.31
2018-10-17T10:49:17.128Z,101232.00
2018-10-17T10:51:45.551Z,101233.36
2018-10-17T10:54:14.710Z,101228.64
2018-10-17T10:56:43.260Z,101223.03
2018-10-17T10:59:11.724Z,101225.17
2018-10-17T11:01:40.173Z,101225.22
2018-10-17T11:04:08.618Z,101204.09
2018-10-17T11:06:37.034Z,101219.56
2018-10-17T11:09:07.514Z,101215.71
2018-10-17T11:11:36.142Z,101213.58
2018-10-17T11:14:05.228Z,101209.64
2018-10-17T11:16:33.614Z,101204.01
2018-10-17T11:19:02.333Z,101208.67
2018-10-17T11:21:30.916Z,101200.77
2018-10-17T11:24:00.245Z,101198.63
2018-10-17T11:26:28.786Z,101205.44
2018-10-17T11:28:57.589Z,101198.92
2018-10-17T11:31:26.156Z,101199.38
2018-10-17T11:33:54.662Z,101198.02
2018-10-17T11:36:23.360Z,101194.09
2018-10-17T11:38:51.758Z,101194.44
2018-10-17T11:41:20.269Z,101194.80
2018-10-17T11:43:48.578Z,101197.72
2018-10-17T11:46:17.040Z,101192.99
2018-10-17T11:48:46.130Z,101186.99
2018-10-17T11:51:14.612Z,101190.12
2018-10-17T11:53:43.021Z,101181.84
2018-10-17T11:56:11.490Z,101184.83
2018-10-17T11:58:41.400Z,101182.98
2018-10-17T12:01:09.886Z,101178.16
2018-10-17T12:03:38.435Z,101176.66
2018-10-17T12:06:07.175Z,101167.02
2018-10-17T12:08:35.473Z,101167.02
2018-10-17T12:11:03.914Z,101170.45
2018-10-17T12:13:32.348Z,101169.55
2018-10-17T12:16:00.790Z,101169.23
2018-10-17T12:18:29.249Z,101167.84
2018-10-17T12:20:57.708Z,101166.00
2018-10-17T12:23:26.078Z,101163.34
2018-10-17T12:25:54.513Z,101169.37
2018-10-17T12:28:22.970Z,101162.34
2018-10-17T12:30:51.389Z,101161.34
2018-10-17T12:33:19.809Z,101163.16
2018-10-17T12:35:48.287Z,101159.66
2018-10-17T12:38:16.784Z,101157.72
2018-10-17T12:40:45.350Z,101156.52
2018-10-17T12:43:13.606Z,101152.92
2018-10-17T12:45:42.094Z,101155.95
2018-10-17T12:48:10.534Z,101154.14
2018-10-17T12:50:38.985Z,101156.41
2018-10-17T12:53:07.670Z,101160.61
2018-10-17T12:55:35.869Z,101154.00
2018-10-17T12:58:04.423Z,101150.29
2018-10-17T13:00:32.848Z,101142.96
2018-10-17T13:03:01.280Z,101141.39
2018-10-17T13:05:29.736Z,101138.58
2018-10-17T13:07:58.161Z,101134.41
2018-10-17T13:10:26.736Z,101135.66
2018-10-17T13:12:55.195Z,101129.38
2018-10-17T13:15:23.557Z,101130.72
2018-10-17T13:17:52.016Z,101128.14
2018-10-17T13:20:20.492Z,101129.33
2018-10-17T13:22:48.922Z,101123.52
2018-10-17T13:25:17.496Z,101116.16
2018-10-17T13:27:45.948Z,101120.08
2018-10-17T13:30:14.392Z,101111.80
2018-10-17T13:32:42.832Z,101109.27
2018-10-17T13:35:11.358Z,101109.05
2018-10-17T13:37:39.716Z,101109.30
2018-10-17T13:40:08.215Z,101113.69
2018-10-17T13:42:36.798Z,101115.95
2018-10-17T13:45:05.825Z,101110.45
2018-10-17T13:47:34.270Z,101113.01
2018-10-17T13:50:02.731Z,101112.02
2018-10-17T13:52:31.130Z,101101.24
2018-10-17T13:55:00.055Z,101107.22
2018-10-17T13:57:28.428Z,101107.30
2018-10-17T13:59:57.346Z,101109.22
2018-10-17T14:02:26.459Z,101108.72
2018-10-17T14:04:55.231Z,101112.92
2018-10-17T14:07:23.668Z,101117.08
2018-10-17T14:09:52.823Z,101117.17
2018-10-17T14:12:22.335Z,101117.14
2018-10-17T14:14:50.881Z,101116.44
2018-10-17T14:17:19.375Z,101107.28
2018-10-17T14:19:47.772Z,101115.33
2018-10-17T14:22:16.255Z,101119.83
2018-10-17T14:24:44.803Z,101119.20
2018-10-17T14:27:14.017Z,101122.36
2018-10-17T14:29:42.489Z,101119.03
2018-10-17T14:32:10.881Z,101115.49
2018-10-17T14:34:39.284Z,101116.00
2018-10-17T14:37:07.871Z,101115.65
2018-10-17T14:39:36.271Z,101113.08
2018-10-17T14:42:04.868Z,101108.59
2018-10-17T14:44:33.303Z,101112.26
2018-10-17T14:47:02.178Z,101111.41
2018-10-17T14:49:30.595Z,101110.88
2018-10-17T14:51:58.966Z,101112.34
2018-10-17T14:54:27.385Z,101113.80
2018-10-17T14:56:55.937Z,101115.65
2018-10-17T14:59:24.365Z,101113.37
2018-10-17T15:01:53.549Z,101117.27
2018-10-17T15:04:22.521Z,101120.45
2018-10-17T15:06:52.694Z,101125.18
2018-10-17T15:09:21.319Z,101119.98
2018-10-17T15:11:49.617Z,101123.47
2018-10-17T15:14:18.580Z,101122.29
2018-10-17T15:16:47.071Z,101123.38
2018-10-17T15:19:15.588Z,101132.46
2018-10-17T15:21:44.039Z,101128.56
2018-10-17T15:24:12.591Z,101127.84
2018-10-17T15:26:41.011Z,101128.87
2018-10-17T15:29:09.559Z,101131.25
2018-10-17T15:31:38.048Z,101130.81
2018-10-17T15:34:06.464Z,101131.20
2018-10-17T15:36:34.992Z,101129.24
2018-10-17T15:39:05.122Z,101136.23
2018-10-17T15:41:34.065Z,101136.39
2018-10-17T15:44:02.485Z,101131.00
2018-10-17T15:46:30.924Z,101132.44
2018-10-17T15:48:59.376Z,101129.84
2018-10-17T15:51:27.881Z,101130.44
2018-10-17T15:53:56.364Z,101137.45
2018-10-17T15:56:24.952Z,101139.27
2018-10-17T15:58:53.512Z,101135.02
2018-10-17T16:01:21.909Z,101139.89
2018-10-17T16:03:50.348Z,101141.23
2018-10-17T16:06:18.977Z,101139.99
2018-10-17T16:08:47.353Z,101140.88
2018-10-17T16:11:16.834Z,101150.39
2018-10-17T16:13:45.298Z,101145.38
2018-10-17T16:16:13.767Z,101144.16
2018-10-17T16:18:42.232Z,101148.59
2018-10-17T16:21:10.683Z,101151.25
2018-10-17T16:23:39.153Z,101151.77
2018-10-17T16:26:07.750Z,101154.41
2018-10-17T16:28:36.105Z,101157.91
2018-10-17T16:31:04.599Z,101160.56
2018-10-17T16:33:33.037Z,101161.07
2018-10-17T16:36:01.543Z,101164.13
2018-10-17T16:38:30.032Z,101162.92
2018-10-17T16:40:58.563Z,101164.67
2018-10-17T16:43:26.997Z,101172.94
2018-10-17T16:45:55.455Z,101179.44
2018-10-17T16:48:23.860Z,101176.88
2018-10-17T16:50:52.436Z,101177.36
2018-10-17T16:53:20.873Z,101181.31
2018-10-17T16:55:49.331Z,101189.52
2018-10-17T16:58:17.842Z,101191.27
2018-10-17T17:00:46.286Z,101190.02
2018-10-17T17:03:14.789Z,101193.06
2018-10-17T17:05:43.207Z,101190.90
2018-10-17T17:08:11.721Z,101192.66
2018-10-17T17:10:40.273Z,101200.01
2018-10-17T17:13:08.811Z,101197.88
2018-10-17T17:15:37.854Z,101206.95
2018-10-17T17:18:06.304Z,101211.30
2018-10-17T17:20:34.760Z,101207.88
2018-10-17T17:23:03.242Z,101210.93
2018-10-17T17:25:31.659Z,101214.42
2018-10-17T17:28:00.105Z,101215.70
2018-10-17T17:30:28.524Z,101221.33
2018-10-17T17:32:57.041Z,101219.63
2018-10-17T17:35:25.473Z,101220.06
2018-10-17T17:37:53.925Z,101222.66
2018-10-17T17:40:22.681Z,101226.53
2018-10-17T17:42:51.162Z,101229.53
2018-10-17T17:45:19.590Z,101229.52
2018-10-17T17:47:48.045Z,101236.41
2018-10-17T17:50:16.507Z,101239.88
2018-10-17T17:52:45.037Z,101243.33
2018-10-17T17:55:13.576Z,101247.62
2018-10-17T17:57:42.046Z,101250.20
2018-10-17T18:00:11.402Z,101252.80
2018-10-17T18:02:39.865Z,101254.53
2018-10-17T18:05:09.275Z,101259.70
2018-10-17T18:07:37.885Z,101264.85
2018-10-17T18:10:07.435Z,101263.14
2018-10-17T18:12:35.988Z,101266.59
2018-10-17T18:15:04.506Z,101263.59
2018-10-17T18:17:32.952Z,101256.25
2018-10-17T18:20:01.504Z,101263.14
2018-10-17T18:22:30.092Z,101264.00
2018-10-17T18:24:58.515Z,101264.87
2018-10-17T18:27:26.981Z,101265.30
2018-10-17T18:29:55.496Z,101271.31
2018-10-17T18:32:24.027Z,101273.89
2018-10-17T18:34:52.473Z,101283.79
2018-10-17T18:37:20.919Z,101284.66
2018-10-17T18:39:49.371Z,101282.94
2018-10-17T18:42:17.802Z,101286.38
2018-10-17T18:44:46.193Z,101283.80
2018-10-17T18:47:14.680Z,101288.10
2018-10-17T18:49:43.157Z,101291.11
2018-10-17T18:52:11.572Z,101286.38
2018-10-17T18:54:40.020Z,101288.53
2018-10-17T18:57:08.617Z,101291.55
2018-10-17T18:59:37.166Z,101286.38
2018-10-17T19:02:05.792Z,101292.83
2018-10-17T19:04:34.307Z,101288.53
2018-10-17T19:07:02.726Z,101294.13
2018-10-17T19:09:31.214Z,101290.66
2018-10-17T19:11:59.709Z,101296.25
2018-10-17T19:14:28.220Z,101301.84
2018-10-17T19:16:56.627Z,101286.37
2018-10-17T19:19:25.195Z,101298.83
2018-10-17T19:21:53.672Z,101299.26
2018-10-17T19:24:22.153Z,101302.70
2018-10-17T19:26:50.584Z,101311.73
2018-10-17T19:29:19.030Z,101308.72
2018-10-17T19:31:47.525Z,101308.72
2018-10-17T19:34:15.952Z,101312.16
2018-10-17T19:36:44.376Z,101312.16
2018-10-17T19:39:13.741Z,101318.18
2018-10-17T19:41:42.594Z,101314.31
2018-10-17T19:44:11.121Z,101316.03
2018-10-17T19:46:40.454Z,101319.04
2018-10-17T19:49:09.113Z,101307.86
2018-10-17T19:51:37.569Z,101324.20
2018-10-17T19:54:06.486Z,101325.06
2018-10-17T19:56:35.058Z,101325.06
2018-10-17T19:59:03.521Z,101327.64
2018-10-17T20:01:32.058Z,101326.35
2018-10-17T20:04:00.860Z,101325.92
2018-10-17T20:06:30.465Z,101325.06
2018-10-17T20:08:58.928Z,101323.77
2018-10-17T20:11:27.452Z,101323.77
2018-10-17T20:13:55.888Z,101322.05
2018-10-17T20:16:24.298Z,101328.50
2018-10-17T20:18:52.772Z,101325.92
2018-10-17T20:21:21.187Z,101334.95
2018-10-17T20:23:49.665Z,101333.66
2018-10-17T20:26:18.236Z,101340.11
2018-10-17T20:28:46.684Z,101340.54
2018-10-17T20:31:15.106Z,101338.39
2018-10-17T20:33:43.555Z,101336.67
2018-10-17T20:36:12.031Z,101336.67
2018-10-17T20:38:40.503Z,101342.27
2018-10-17T20:41:08.941Z,101338.82
2018-10-17T20:43:37.424Z,101338.39
2018-10-17T20:46:05.893Z,101345.66
2018-10-17T20:48:34.404Z,101343.08
2018-10-17T20:51:02.846Z,101349.53
2018-10-17T20:53:31.313Z,101346.52
2018-10-17T20:55:59.748Z,101348.23
2018-10-17T20:58:28.176Z,101351.69
2018-10-17T21:00:56.593Z,101347.84
2018-10-17T21:03:25.026Z,101347.39
2018-10-17T21:05:53.495Z,101353.40
2018-10-17T21:08:21.985Z,101349.95
2018-10-17T21:10:50.405Z,101353.83
2018-10-17T21:13:18.850Z,101353.39
2018-10-17T21:15:47.263Z,101356.41
2018-10-17T21:18:15.742Z,101355.98
2018-10-17T21:20:44.174Z,101353.83
2018-10-17T21:23:12.679Z,101353.83
2018-10-17T21:25:41.182Z,101351.25
2018-10-17T21:28:09.749Z,101355.55
2018-10-17T21:30:38.234Z,101353.01
2018-10-17T21:33:07.041Z,101359.89
2018-10-17T21:35:35.636Z,101360.31
2018-10-17T21:38:04.818Z,101357.31
2018-10-17T21:40:33.232Z,101352.58
2018-10-17T21:43:01.705Z,101356.41
2018-10-17T21:45:30.163Z,101355.13
2018-10-17T21:47:58.601Z,101365.87
2018-10-17T21:50:27.043Z,101363.29
2018-10-17T21:52:55.536Z,101365.87
2018-10-17T21:55:23.914Z,101365.87
2018-10-17T21:57:52.925Z,101369.73
2018-10-17T22:00:21.365Z,101369.31
2018-10-17T22:02:49.773Z,101369.31
2018-10-17T22:05:18.200Z,101365.86
2018-10-17T22:07:46.664Z,101368.87
2018-10-17T22:10:15.092Z,101370.58
2018-10-17T22:12:43.498Z,101373.98
2018-10-17T22:15:12.016Z,101376.55
2018-10-17T22:17:40.530Z,101376.50
2018-10-17T22:20:09.049Z,101377.31
2018-10-17T22:22:37.404Z,101374.28
2018-10-17T22:25:06.773Z,101378.11
2018-10-17T22:27:35.244Z,101376.86
2018-10-17T22:30:03.791Z,101379.88
2018-10-17T22:32:32.229Z,101376.45
2018-10-17T22:35:00.674Z,101326.02
2018-10-17T22:37:29.114Z,101379.81
2018-10-17T22:39:57.513Z,101380.25
2018-10-17T22:42:25.917Z,101381.11
2018-10-17T22:44:54.369Z,101378.94
2018-10-17T22:47:22.792Z,101381.91
2018-10-17T22:49:51.228Z,101383.16
2018-10-17T22:52:19.627Z,101384.84
2018-10-17T22:54:48.052Z,101384.42
2018-10-17T22:57:16.560Z,101386.98
2018-10-17T22:59:45.085Z,101388.68
2018-10-17T23:02:13.605Z,101393.34
2018-10-17T23:04:42.009Z,101390.33
2018-10-17T23:07:10.425Z,101388.17
2018-10-17T23:09:38.888Z,101388.19
2018-10-17T23:12:07.364Z,101387.75
2018-10-17T23:14:35.802Z,101386.02
2018-10-17T23:17:04.299Z,101387.72
2018-10-17T23:19:32.715Z,101384.29
2018-10-17T23:22:01.114Z,101385.56
2018-10-17T23:24:29.584Z,101390.64
2018-10-17T23:26:58.005Z,101388.05
2018-10-17T23:29:26.403Z,101392.80
2018-10-17T23:31:54.839Z,101394.10
2018-10-17T23:34:23.268Z,101349.75
2018-10-17T23:36:51.664Z,101386.86
2018-10-17T23:39:20.045Z,101390.25
2018-10-17T23:41:48.459Z,101390.66
2018-10-17T23:44:16.966Z,101389.80
2018-10-17T23:46:45.357Z,101391.52
2018-10-17T23:49:13.749Z,101388.94
2018-10-17T23:51:42.106Z,101394.09
2018-10-17T23:54:10.608Z,101396.66
2018-10-17T23:56:39.020Z,101391.50
2018-10-17T23:59:07.447Z,101394.92
